Time;durP1;ratioP1;P1;durP2;ratioP2;P2;SDS_P1;SDS_P2;PMS_P1;PMS_P2;Temp;Humidity;BMP_temperature;BMP_pressure;BME280_temperature;BME280_humidity;BME280_pressure;Samples;Min_cycle;Max_cycle;Signal;HPM_P1;HPM_P2
2022/11/02 00:00:35;;;;;;;1999.90;999.90;;;12.60;99.90;;;;;;5079774;28;20072;-63
2022/11/02 00:03:00;;;;;;;1999.90;999.90;;;12.50;99.90;;;;;;5099020;28;20420;-64
2022/11/02 00:05:26;;;;;;;1999.90;999.90;;;12.60;99.90;;;;;;5082791;28;20063;-64
2022/11/02 00:07:53;;;;;;;1999.90;999.90;;;12.60;99.90;;;;;;5066414;28;20032;-63
2022/11/02 00:10:23;;;;;;;1999.90;999.90;;;12.60;99.90;;;;;;5081472;28;20527;-63
2022/11/02 00:12:49;;;;;;;1999.90;999.90;;;12.60;99.90;;;;;;5082050;28;20047;-64
2022/11/02 00:15:15;;;;;;;1999.90;999.90;;;12.60;99.90;;;;;;5070920;28;20044;-63
2022/11/02 00:17:45;;;;;;;1999.90;999.90;;;12.50;99.90;;;;;;5075306;28;20131;-63
2022/11/02 00:20:12;;;;;;;1999.90;999.90;;;12.40;99.90;;;;;;5071394;28;20117;-63
2022/11/02 00:22:38;;;;;;;1999.90;999.90;;;12.30;99.90;;;;;;5079594;28;20132;-63
2022/11/02 00:25:06;;;;;;;1999.90;999.90;;;12.20;99.90;;;;;;5067669;28;20051;-63
2022/11/02 00:27:33;;;;;;;1999.90;999.90;;;12.10;99.90;;;;;;5083107;28;20071;-63
2022/11/02 00:29:59;;;;;;;1999.90;999.90;;;11.90;99.90;;;;;;5084025;28;20051;-63
2022/11/02 00:32:25;;;;;;;1999.90;999.90;;;11.80;99.90;;;;;;5099783;28;20544;-63
2022/11/02 00:34:51;;;;;;;1999.90;999.90;;;11.70;99.90;;;;;;5085864;28;20092;-63
2022/11/02 00:37:16;;;;;;;1999.90;999.90;;;11.60;99.90;;;;;;5088408;28;20035;-63
2022/11/02 00:39:42;;;;;;;1999.90;999.90;;;11.50;99.90;;;;;;5063019;28;20477;-63
2022/11/02 00:42:08;;;;;;;1999.90;999.90;;;11.50;99.90;;;;;;5083441;28;20050;-63
2022/11/02 00:44:33;;;;;;;1999.90;999.90;;;11.40;99.90;;;;;;5081932;28;20218;-63
2022/11/02 00:46:59;;;;;;;1999.90;999.90;;;11.40;99.90;;;;;;5086228;28;20135;-63
2022/11/02 00:49:24;;;;;;;1999.90;999.90;;;11.40;99.90;;;;;;5082017;28;20499;-63
2022/11/02 00:51:50;;;;;;;1999.90;999.90;;;11.40;99.90;;;;;;5082509;28;20036;-63
2022/11/02 00:54:16;;;;;;;1999.90;999.90;;;11.40;99.90;;;;;;5082562;28;20063;-66
2022/11/02 00:56:41;;;;;;;1999.90;999.90;;;11.40;99.90;;;;;;5083936;28;20331;-63
2022/11/02 00:59:07;;;;;;;1999.90;999.90;;;11.30;99.90;;;;;;5085225;28;20495;-63
2022/11/02 01:01:33;;;;;;;1999.90;999.90;;;11.30;99.90;;;;;;5078646;28;20040;-63
2022/11/02 01:03:58;;;;;;;1999.90;999.90;;;11.30;99.90;;;;;;5084825;28;20102;-63
2022/11/02 01:06:24;;;;;;;1999.90;999.90;;;11.20;99.90;;;;;;5083481;28;20075;-63
2022/11/02 01:08:50;;;;;;;1999.90;999.90;;;11.30;99.90;;;;;;5080056;28;20045;-63
2022/11/02 01:11:18;;;;;;;1999.90;999.90;;;11.20;99.90;;;;;;5081946;28;20028;-63
2022/11/02 01:13:44;;;;;;;1999.90;999.90;;;11.20;99.90;;;;;;5068717;28;20076;-63
2022/11/02 01:16:11;;;;;;;1999.90;999.90;;;11.20;99.90;;;;;;5079885;28;20044;-63
2022/11/02 01:18:36;;;;;;;1999.90;999.90;;;11.20;99.90;;;;;;5084803;28;20040;-63
2022/11/02 01:21:02;;;;;;;1999.90;999.90;;;11.20;99.90;;;;;;5084121;28;20044;-63
2022/11/02 01:23:32;;;;;;;1999.90;999.90;;;11.10;99.90;;;;;;5082391;28;20040;-63
2022/11/02 01:25:57;;;;;;;1999.90;999.90;;;11.10;99.90;;;;;;5081951;28;20545;-63
2022/11/02 01:28:23;;;;;;;1999.90;999.90;;;11.00;99.90;;;;;;5081638;28;20079;-63
2022/11/02 01:30:48;;;;;;;1999.90;999.90;;;11.00;99.90;;;;;;5076135;28;20055;-64
2022/11/02 01:33:14;;;;;;;1999.90;999.90;;;10.90;99.90;;;;;;5085239;28;20051;-63
2022/11/02 01:35:39;;;;;;;1999.90;999.90;;;10.90;99.90;;;;;;5083480;28;20589;-63
2022/11/02 01:38:05;;;;;;;1999.90;999.90;;;10.90;99.90;;;;;;5085875;28;20132;-63
2022/11/02 01:40:36;;;;;;;1999.90;999.90;;;10.90;99.90;;;;;;5083469;28;20043;-63
2022/11/02 01:43:22;;;;;;;1999.90;999.90;;;10.90;99.90;;;;;;5081481;28;20048;-63
2022/11/02 01:46:10;;;;;;;1999.90;999.90;;;10.90;99.90;;;;;;5084173;28;21558;-64
2022/11/02 01:48:41;;;;;;;1999.90;999.90;;;11.00;99.90;;;;;;5069004;28;20044;-64
2022/11/02 01:51:10;;;;;;;1999.90;999.90;;;11.00;99.90;;;;;;5080057;28;20043;-64
2022/11/02 01:53:41;;;;;;;1999.90;999.90;;;11.10;99.90;;;;;;5088217;28;20055;-63
2022/11/02 01:56:11;;;;;;;1999.90;999.90;;;11.10;99.90;;;;;;5084203;28;20043;-63
2022/11/02 01:58:37;;;;;;;1999.90;999.90;;;11.10;99.90;;;;;;5082859;28;20115;-63
2022/11/02 02:01:03;;;;;;;1999.90;999.90;;;11.10;99.90;;;;;;5074909;28;20564;-63
2022/11/02 02:03:30;;;;;;;1999.90;999.90;;;11.00;99.90;;;;;;5083054;28;20063;-63
2022/11/02 02:06:00;;;;;;;1999.90;999.90;;;10.90;99.90;;;;;;5080273;28;20536;-63
2022/11/02 02:08:27;;;;;;;1999.90;999.90;;;10.90;99.90;;;;;;5066921;28;20048;-63
2022/11/02 02:10:56;;;;;;;1999.90;999.90;;;10.80;99.90;;;;;;5078092;28;20036;-63
2022/11/02 02:13:23;;;;;;;1999.90;999.90;;;10.80;99.90;;;;;;5082071;28;20047;-63
2022/11/02 02:16:13;;;;;;;1999.90;999.90;;;10.70;99.90;;;;;;5080708;28;20052;-63
2022/11/02 02:18:57;;;;;;;1999.90;999.90;;;10.70;99.90;;;;;;5079116;28;20078;-63
2022/11/02 02:21:44;;;;;;;1999.90;999.90;;;10.70;99.90;;;;;;5083944;28;20051;-63
2022/11/02 02:24:20;;;;;;;1999.90;999.90;;;10.70;99.90;;;;;;5080672;28;20097;-63
2022/11/02 02:27:06;;;;;;;1999.90;999.90;;;10.70;99.90;;;;;;5080438;28;20073;-63
2022/11/02 02:29:34;;;;;;;1999.90;999.90;;;10.60;99.90;;;;;;5074627;28;20040;-63
2022/11/02 02:32:17;;;;;;;1999.90;999.90;;;10.60;99.90;;;;;;5082695;28;20044;-63
2022/11/02 02:34:53;;;;;;;1999.90;999.90;;;10.50;99.90;;;;;;5075073;28;20040;-63
2022/11/02 02:37:35;;;;;;;1999.90;999.90;;;10.50;99.90;;;;;;5079099;28;20055;-63
2022/11/02 02:40:12;;;;;;;1999.90;999.90;;;10.50;99.90;;;;;;5064854;28;20519;-63
2022/11/02 02:42:53;;;;;;;1999.90;999.90;;;10.50;99.90;;;;;;5084225;28;20042;-63
2022/11/02 02:45:39;;;;;;;1999.90;999.90;;;10.50;99.90;;;;;;5087223;28;20044;-63
2022/11/02 02:48:23;;;;;;;1999.90;999.90;;;10.50;99.90;;;;;;5080220;28;20059;-64
2022/11/02 02:50:52;;;;;;;1999.90;999.90;;;10.50;99.90;;;;;;5083733;28;20079;-63
2022/11/02 02:53:37;;;;;;;1999.90;999.90;;;10.50;99.90;;;;;;5083196;28;20083;-64
2022/11/02 02:56:04;;;;;;;1999.90;999.90;;;10.60;99.90;;;;;;5083942;28;20042;-63
2022/11/02 02:58:51;;;;;;;1999.90;999.90;;;10.60;99.90;;;;;;5082214;28;20040;-63
2022/11/02 03:01:18;;;;;;;1999.90;999.90;;;10.70;99.90;;;;;;5078139;28;20062;-64
2022/11/02 03:03:44;;;;;;;1999.90;999.90;;;10.70;99.90;;;;;;5082711;28;20036;-64
2022/11/02 03:06:23;;;;;;;1999.90;999.90;;;10.70;99.90;;;;;;5080314;28;20500;-63
2022/11/02 03:09:02;;;;;;;1999.90;999.90;;;10.70;99.90;;;;;;5080424;28;20036;-64
2022/11/02 03:11:28;;;;;;;1999.90;999.90;;;10.60;99.90;;;;;;5079797;28;20131;-63
2022/11/02 03:14:01;;;;;;;1999.90;999.90;;;10.60;99.90;;;;;;5085632;28;20146;-64
2022/11/02 03:16:56;;;;;;;1999.90;999.90;;;10.50;99.90;;;;;;5080197;28;20044;-63
2022/11/02 03:19:50;;;;;;;1999.90;999.90;;;10.50;99.90;;;;;;5084378;28;20100;-63
2022/11/02 03:22:32;;;;;;;1999.90;999.90;;;10.40;99.90;;;;;;5080650;28;20278;-64
2022/11/02 03:25:17;;;;;;;1999.90;999.90;;;10.50;99.90;;;;;;5059894;28;20089;-64
2022/11/02 03:27:57;;;;;;;1999.90;999.90;;;10.50;99.90;;;;;;5080655;28;20035;-63
2022/11/02 03:30:28;;;;;;;1999.90;999.90;;;10.50;99.90;;;;;;5070966;28;20041;-63
2022/11/02 03:33:29;;;;;;;1999.90;999.90;;;10.50;99.90;;;;;;5080805;28;20384;-64
2022/11/02 03:36:07;;;;;;;1999.90;999.90;;;10.60;99.90;;;;;;5069620;28;20048;-64
2022/11/02 03:38:55;;;;;;;1999.90;999.90;;;10.50;99.90;;;;;;5078727;28;20119;-64
2022/11/02 03:41:23;;;;;;;1999.90;999.90;;;10.40;99.90;;;;;;5082401;28;20548;-64
2022/11/02 03:43:54;;;;;;;1999.90;999.90;;;10.40;99.90;;;;;;5083030;28;20048;-63
2022/11/02 03:46:21;;;;;;;1999.90;999.90;;;10.50;99.90;;;;;;5078813;28;20252;-64
2022/11/02 03:48:49;;;;;;;1999.90;999.90;;;10.50;99.90;;;;;;5084733;28;20047;-63
2022/11/02 03:51:19;;;;;;;1999.90;999.90;;;10.50;99.90;;;;;;5063975;28;20081;-63
2022/11/02 03:54:12;;;;;;;1999.90;999.90;;;10.50;99.90;;;;;;5082159;28;20109;-63
2022/11/02 03:56:45;;;;;;;1999.90;999.90;;;10.40;99.90;;;;;;5079105;28;20040;-63
2022/11/02 03:59:12;;;;;;;1999.90;999.90;;;10.50;99.90;;;;;;5082804;28;20089;-64
2022/11/02 04:01:44;;;;;;;1999.90;999.90;;;10.50;99.90;;;;;;5080679;28;20044;-63
2022/11/02 04:04:10;;;;;;;1999.90;999.90;;;10.50;99.90;;;;;;5084656;28;20035;-63
2022/11/02 04:06:38;;;;;;;1999.90;999.90;;;10.50;99.90;;;;;;5078868;28;20536;-64
2022/11/02 04:09:04;;;;;;;1999.90;999.90;;;10.50;99.90;;;;;;5089279;28;20044;-63
2022/11/02 04:19:43;;;;;;;1999.90;999.90;;;10.70;99.90;;;;;;5086724;28;20119;-64
2022/11/02 04:27:38;;;;;;;1999.90;999.90;;;10.70;99.90;;;;;;5087601;28;20044;-63
2022/11/02 04:30:04;;;;;;;1999.90;999.90;;;10.70;99.90;;;;;;5088557;28;20051;-63
2022/11/02 04:35:20;;;;;;;1999.90;999.90;;;10.70;99.90;;;;;;5081241;28;20047;-64
2022/11/02 04:40:29;;;;;;;1999.90;999.90;;;10.70;99.90;;;;;;5081433;28;20140;-63
2022/11/02 04:42:55;;;;;;;1999.90;999.90;;;10.60;99.90;;;;;;5083823;28;20079;-63
2022/11/02 04:45:21;;;;;;;1999.90;999.90;;;10.60;99.90;;;;;;5080113;28;20040;-63
2022/11/02 04:47:46;;;;;;;1999.90;999.90;;;10.50;99.90;;;;;;5081645;28;20071;-63
2022/11/02 04:50:12;;;;;;;1999.90;999.90;;;10.50;99.90;;;;;;5086669;28;20040;-64
2022/11/02 04:52:37;;;;;;;1999.90;999.90;;;10.50;99.90;;;;;;5102142;28;20084;-63
2022/11/02 04:55:03;;;;;;;1999.90;999.90;;;10.50;99.90;;;;;;5083455;28;20069;-63
2022/11/02 04:57:29;;;;;;;1999.90;999.90;;;10.50;99.90;;;;;;5089145;28;20103;-64
2022/11/02 04:59:54;;;;;;;1999.90;999.90;;;10.50;99.90;;;;;;5083067;28;20486;-66
2022/11/02 05:02:20;;;;;;;1999.90;999.90;;;10.50;99.90;;;;;;5058530;28;20052;-63
2022/11/02 05:04:46;;;;;;;1999.90;999.90;;;10.40;99.90;;;;;;5081001;28;20040;-64
2022/11/02 05:07:11;;;;;;;1999.90;999.90;;;10.50;99.90;;;;;;5097195;28;20536;-63
2022/11/02 05:09:37;;;;;;;1999.90;999.90;;;10.50;99.90;;;;;;5079068;28;20160;-63
2022/11/02 05:12:06;;;;;;;1999.90;999.90;;;10.50;99.90;;;;;;5083066;28;20059;-63
2022/11/02 05:14:32;;;;;;;1999.90;999.90;;;10.50;99.90;;;;;;5088581;28;20452;-64
2022/11/02 05:16:57;;;;;;;1999.90;999.90;;;10.60;99.90;;;;;;5086622;28;20117;-64
2022/11/02 05:19:23;;;;;;;1999.90;999.90;;;10.60;99.90;;;;;;5082334;28;20059;-63
2022/11/02 05:21:49;;;;;;;1999.90;999.90;;;10.60;99.90;;;;;;5072016;28;20048;-63
2022/11/02 05:24:15;;;;;;;1999.90;999.90;;;10.50;99.90;;;;;;5084393;28;20047;-64
2022/11/02 05:26:41;;;;;;;1999.90;999.90;;;10.50;99.90;;;;;;5084605;28;20051;-63
2022/11/02 05:29:07;;;;;;;1999.90;999.90;;;10.50;99.90;;;;;;5080257;28;20152;-63
2022/11/02 05:31:32;;;;;;;1999.90;999.90;;;10.40;99.90;;;;;;5084553;28;20399;-63
2022/11/02 05:33:58;;;;;;;1999.90;999.90;;;10.40;99.90;;;;;;5083841;28;20044;-66
2022/11/02 05:36:23;;;;;;;1999.90;999.90;;;10.40;99.90;;;;;;5082728;28;20063;-66
2022/11/02 05:38:53;;;;;;;1999.90;999.90;;;10.50;99.90;;;;;;5087848;28;20044;-66
2022/11/02 05:41:19;;;;;;;1999.90;999.90;;;10.50;99.90;;;;;;5086066;28;20044;-64
2022/11/02 05:43:45;;;;;;;1999.90;999.90;;;10.50;99.90;;;;;;5082393;28;20051;-63
2022/11/02 05:46:13;;;;;;;1999.90;999.90;;;10.60;99.90;;;;;;5082965;28;20139;-64
2022/11/02 05:48:39;;;;;;;1999.90;999.90;;;10.60;99.90;;;;;;5086794;28;20056;-64
2022/11/02 05:51:05;;;;;;;1999.90;999.90;;;10.70;99.90;;;;;;5086164;28;20067;-63
2022/11/02 05:53:32;;;;;;;1999.90;999.90;;;10.70;99.90;;;;;;5079937;28;20460;-63
2022/11/02 05:56:02;;;;;;;1999.90;999.90;;;10.70;99.90;;;;;;5087116;28;20044;-63
2022/11/02 05:58:28;;;;;;;1999.90;999.90;;;10.70;99.90;;;;;;5097716;28;20032;-64
2022/11/02 06:00:57;;;;;;;1999.90;999.90;;;10.60;99.90;;;;;;5081607;28;20376;-63
2022/11/02 06:03:22;;;;;;;1999.90;999.90;;;10.50;99.90;;;;;;5062119;28;20036;-63
2022/11/02 06:06:02;;;;;;;1999.90;999.90;;;10.50;99.90;;;;;;5086024;28;20097;-63
2022/11/02 06:08:33;;;;;;;1999.90;999.90;;;10.50;99.90;;;;;;5094572;28;20442;-64
2022/11/02 06:11:12;;;;;;;1999.90;999.90;;;10.60;99.90;;;;;;5084497;28;20044;-64
2022/11/02 06:13:38;;;;;;;1999.90;999.90;;;10.60;99.90;;;;;;5084842;28;20488;-63
2022/11/02 06:16:05;;;;;;;1999.90;999.90;;;10.60;99.90;;;;;;5080699;28;20040;-63
2022/11/02 06:18:31;;;;;;;1999.90;999.90;;;10.60;99.90;;;;;;5083434;28;20343;-63
2022/11/02 06:20:57;;;;;;;1999.90;999.90;;;10.60;99.90;;;;;;5074182;28;20093;-63
2022/11/02 06:23:27;;;;;;;1999.90;999.90;;;10.60;99.90;;;;;;5088758;28;20170;-66
2022/11/02 06:25:55;;;;;;;1999.90;999.90;;;10.70;99.90;;;;;;5086326;28;20044;-64
2022/11/02 06:28:21;;;;;;;1999.90;999.90;;;10.60;99.90;;;;;;5090330;28;20461;-64
2022/11/02 06:30:48;;;;;;;1999.90;999.90;;;10.70;99.90;;;;;;5079720;28;20115;-64
2022/11/02 06:33:14;;;;;;;1999.90;999.90;;;10.70;99.90;;;;;;5086401;28;20051;-64
2022/11/02 06:35:42;;;;;;;1999.90;999.90;;;10.70;99.90;;;;;;5084973;28;20028;-64
2022/11/02 06:38:08;;;;;;;1999.90;999.90;;;10.70;99.90;;;;;;5079598;28;20055;-64
2022/11/02 06:40:33;;;;;;;1999.90;999.90;;;10.70;99.90;;;;;;5101837;28;20052;-64
2022/11/02 06:42:59;;;;;;;1999.90;999.90;;;10.60;99.90;;;;;;5086706;28;20035;-64
2022/11/02 06:45:25;;;;;;;1999.90;999.90;;;10.70;99.90;;;;;;5085916;28;20036;-64
2022/11/02 06:47:50;;;;;;;1999.90;999.90;;;10.60;99.90;;;;;;5079216;28;20058;-64
2022/11/02 06:50:16;;;;;;;1999.90;999.90;;;10.60;99.90;;;;;;5084693;28;20056;-64
2022/11/02 06:52:46;;;;;;;1999.90;999.90;;;10.60;99.90;;;;;;5085809;28;20364;-64
2022/11/02 06:55:14;;;;;;;1999.90;999.90;;;10.60;99.90;;;;;;5089289;28;20058;-64
2022/11/02 06:57:40;;;;;;;1999.90;999.90;;;10.60;99.90;;;;;;5078592;28;20630;-64
2022/11/02 07:00:11;;;;;;;1999.90;999.90;;;10.60;99.90;;;;;;5073117;28;20042;-64
2022/11/02 07:02:36;;;;;;;1999.90;999.90;;;10.60;99.90;;;;;;5081215;28;20042;-64
2022/11/02 07:05:02;;;;;;;1999.90;999.90;;;10.70;99.90;;;;;;5079649;28;20399;-64
2022/11/02 07:07:28;;;;;;;1999.90;999.90;;;10.70;99.90;;;;;;5092658;28;20124;-64
2022/11/02 07:09:53;;;;;;;1999.90;999.90;;;10.80;99.90;;;;;;5081383;28;20040;-64
2022/11/02 07:12:19;;;;;;;1999.90;999.90;;;10.80;99.90;;;;;;5057803;28;20106;-64
2022/11/02 07:14:44;;;;;;;1999.90;999.90;;;10.90;99.90;;;;;;5080510;28;20027;-64
2022/11/02 07:17:10;;;;;;;1999.90;999.90;;;10.90;99.90;;;;;;5079247;28;20125;-64
2022/11/02 07:19:36;;;;;;;1999.90;999.90;;;10.90;99.90;;;;;;5078202;28;20488;-64
2022/11/02 07:22:01;;;;;;;1999.90;999.90;;;10.80;99.90;;;;;;5083890;28;20134;-64
2022/11/02 07:24:27;;;;;;;1999.90;999.90;;;10.80;99.90;;;;;;5076472;28;20044;-64
2022/11/02 07:26:52;;;;;;;1999.90;999.90;;;10.80;99.90;;;;;;5074673;28;20036;-64
2022/11/02 07:29:18;;;;;;;1999.90;999.90;;;10.80;99.90;;;;;;5079699;28;20119;-64
2022/11/02 07:31:44;;;;;;;1999.90;999.90;;;10.80;99.90;;;;;;5077210;28;20503;-64
2022/11/02 07:34:11;;;;;;;1999.90;999.90;;;10.80;99.90;;;;;;5082533;28;20036;-64
2022/11/02 07:36:36;;;;;;;1999.90;999.90;;;10.70;99.90;;;;;;5080740;28;20048;-64
2022/11/02 07:39:02;;;;;;;1999.90;999.90;;;10.70;99.90;;;;;;5074628;28;20480;-64
2022/11/02 07:41:28;;;;;;;1999.90;999.90;;;10.70;99.90;;;;;;5068635;28;20043;-64
2022/11/02 07:43:54;;;;;;;1999.90;999.90;;;10.70;99.90;;;;;;5074252;28;20048;-64
2022/11/02 07:46:19;;;;;;;1999.90;999.90;;;10.60;99.90;;;;;;5079351;28;20060;-64
2022/11/02 07:48:46;;;;;;;1999.90;999.90;;;10.60;99.90;;;;;;5070387;28;20047;-64
2022/11/02 07:51:12;;;;;;;1999.90;999.90;;;10.60;99.90;;;;;;5073702;28;20040;-64
2022/11/02 07:53:37;;;;;;;1999.90;999.90;;;10.60;99.90;;;;;;5083467;28;20032;-64
2022/11/02 07:56:03;;;;;;;1999.90;999.90;;;10.60;99.90;;;;;;5078685;28;20046;-64
2022/11/02 07:58:29;;;;;;;1999.90;999.90;;;10.50;99.90;;;;;;5074483;28;20042;-64
2022/11/02 08:00:58;;;;;;;1999.90;999.90;;;10.50;99.90;;;;;;5072330;28;20092;-64
2022/11/02 08:03:24;;;;;;;1999.90;999.90;;;10.60;99.90;;;;;;5081841;28;20511;-64
2022/11/02 08:05:49;;;;;;;1999.90;999.90;;;10.60;99.90;;;;;;5079782;28;20124;-64
2022/11/02 08:08:22;;;;;;;1999.90;999.90;;;10.60;99.90;;;;;;5075105;28;20532;-64
2022/11/02 08:10:49;;;;;;;;;;;10.70;99.90;;;;;;5071222;28;20416;-64
2022/11/02 08:13:18;;;;;;;1999.90;999.90;;;10.80;99.90;;;;;;5076089;28;19920;-64
2022/11/02 08:15:44;;;;;;;1999.90;999.90;;;10.80;99.90;;;;;;5077281;28;20038;-64
2022/11/02 08:18:21;;;;;;;1999.90;999.90;;;10.90;99.90;;;;;;5086508;28;20051;-64
2022/11/02 08:20:47;;;;;;;1999.90;999.90;;;11.00;99.90;;;;;;5065572;28;20044;-64
2022/11/02 08:23:15;;;;;;;1999.90;999.90;;;11.10;99.90;;;;;;5092081;28;20415;-64
2022/11/02 08:25:41;;;;;;;1999.90;999.90;;;11.20;99.90;;;;;;5083707;28;20579;-64
2022/11/02 08:28:12;;;;;;;1999.90;999.90;;;11.10;99.90;;;;;;5069002;28;20043;-64
2022/11/02 08:30:38;;;;;;;1999.90;999.90;;;11.10;99.90;;;;;;5081137;28;20039;-66
2022/11/02 08:33:06;;;;;;;1999.90;999.90;;;11.40;99.90;;;;;;5090072;28;20411;-66
2022/11/02 08:35:32;;;;;;;1999.90;999.90;;;11.70;99.90;;;;;;5078840;28;20043;-65
2022/11/02 08:37:58;;;;;;;1999.90;999.90;;;12.00;99.90;;;;;;5082298;28;20494;-66
2022/11/02 08:40:25;;;;;;;1999.90;999.90;;;12.30;99.90;;;;;;5088524;28;20043;-65
2022/11/02 08:43:05;;;;;;;1999.90;999.90;;;12.70;99.90;;;;;;5087596;28;20048;-65
2022/11/02 08:45:32;;;;;;;1999.90;999.90;;;13.30;99.90;;;;;;5091264;28;20063;-66
2022/11/02 08:47:58;;;;;;;1999.90;999.90;;;13.70;99.90;;;;;;5071485;28;20234;-66
2022/11/02 08:50:25;;;;;;;1999.90;999.90;;;13.80;99.90;;;;;;5071370;28;20086;-66
2022/11/02 08:52:50;;;;;;;1999.90;999.90;;;14.00;99.90;;;;;;5082161;28;20043;-66
2022/11/02 08:55:16;;;;;;;1999.90;999.90;;;14.20;99.90;;;;;;5075279;28;20587;-65
2022/11/02 08:57:46;;;;;;;1999.90;999.90;;;14.40;99.90;;;;;;5074284;28;20040;-65
2022/11/02 09:00:12;;;;;;;1999.90;999.90;;;14.50;99.90;;;;;;5090537;28;20369;-65
2022/11/02 09:02:38;;;;;;;1999.90;999.90;;;14.30;99.90;;;;;;5079277;28;20044;-65
2022/11/02 09:05:04;;;;;;;1999.90;999.90;;;13.90;99.90;;;;;;5096648;28;20078;-65
2022/11/02 09:07:29;;;;;;;1999.90;999.90;;;13.40;99.90;;;;;;5087501;28;20088;-66
2022/11/02 09:09:55;;;;;;;1999.90;999.90;;;13.30;99.90;;;;;;5068671;28;20517;-65
2022/11/02 09:12:20;;;;;;;1999.90;999.90;;;13.60;99.90;;;;;;5080054;28;20123;-65
2022/11/02 09:14:46;;;;;;;1999.90;999.90;;;13.60;99.90;;;;;;5085264;28;20597;-66
2022/11/02 09:17:12;;;;;;;1999.90;999.90;;;13.60;99.90;;;;;;5093191;28;20032;-65
2022/11/02 09:19:37;;;;;;;1999.90;999.90;;;13.70;99.90;;;;;;5083635;28;20044;-65
2022/11/02 09:22:03;;;;;;;1999.90;999.90;;;13.80;99.90;;;;;;5082605;28;20116;-65
2022/11/02 09:24:28;;;;;;;1999.90;999.90;;;14.00;99.90;;;;;;5083753;28;20044;-66
2022/11/02 09:26:54;;;;;;;1999.90;999.90;;;14.10;99.90;;;;;;5090038;28;20046;-66
2022/11/02 09:29:19;;;;;;;1999.90;999.90;;;14.30;99.90;;;;;;5089573;28;20075;-66
2022/11/02 09:31:47;;;;;;;1999.90;999.90;;;14.40;99.90;;;;;;5086928;28;20518;-65
2022/11/02 09:34:13;;;;;;;1999.90;999.90;;;14.50;99.90;;;;;;5074261;28;20500;-66
2022/11/02 09:36:39;;;;;;;1999.90;999.90;;;14.40;99.90;;;;;;5063469;28;20201;-66
2022/11/02 09:39:05;;;;;;;1999.90;999.90;;;14.20;99.90;;;;;;5070244;28;20116;-65
2022/11/02 09:41:41;;;;;;;1999.90;999.90;;;13.90;99.90;;;;;;5089334;28;20044;-65
2022/11/02 09:44:20;;;;;;;1999.90;999.90;;;13.60;99.90;;;;;;5065542;28;20045;-65
2022/11/02 09:46:47;;;;;;;1999.90;999.90;;;13.40;99.90;;;;;;5082701;28;20123;-65
2022/11/02 09:49:21;;;;;;;1999.90;999.90;;;13.20;99.90;;;;;;5075856;28;20044;-65
2022/11/02 09:51:54;;;;;;;1999.90;999.90;;;13.20;99.90;;;;;;5082436;28;20070;-65
2022/11/02 09:54:24;;;;;;;1999.90;999.90;;;13.20;99.90;;;;;;5081420;28;20036;-65
2022/11/02 09:56:51;;;;;;;1999.90;999.90;;;13.10;99.90;;;;;;5077226;28;20538;-65
2022/11/02 09:59:20;;;;;;;1999.90;999.90;;;13.00;99.90;;;;;;5085331;28;20041;-65
2022/11/02 10:02:10;;;;;;;1999.90;999.90;;;13.10;99.90;;;;;;5079265;28;20123;-65
2022/11/02 10:05:28;;;;;;;1999.90;999.90;;;13.20;99.90;;;;;;5075660;28;20051;-65
2022/11/02 10:08:05;;;;;;;1999.90;999.90;;;13.40;99.90;;;;;;5080522;28;20417;-65
2022/11/02 10:10:42;;;;;;;1999.90;999.90;;;13.70;99.90;;;;;;5088634;28;20492;-65
2022/11/02 10:13:32;;;;;;;1999.90;999.90;;;14.00;99.90;;;;;;5075359;28;20523;-65
2022/11/02 10:16:14;;;;;;;1999.90;999.90;;;14.40;99.90;;;;;;5100350;28;20040;-65
2022/11/02 10:18:41;;;;;;;1999.90;999.90;;;14.50;99.90;;;;;;5080877;28;20046;-65
2022/11/02 10:21:19;;;;;;;1999.90;999.90;;;14.60;99.90;;;;;;5057462;28;20048;-65
2022/11/02 10:23:53;;;;;;;1999.90;999.90;;;14.70;99.90;;;;;;5087476;28;20055;-65
2022/11/02 10:26:42;;;;;;;1999.90;999.90;;;14.80;99.90;;;;;;5070013;28;20043;-65
2022/11/02 10:29:29;;;;;;;1999.90;999.90;;;14.80;99.90;;;;;;5085415;28;20043;-65
2022/11/02 10:31:54;;;;;;;1999.90;999.90;;;15.00;99.90;;;;;;5080679;28;20045;-66
2022/11/02 10:34:25;;;;;;;1999.90;999.90;;;15.10;99.90;;;;;;5079753;28;20545;-66
2022/11/02 10:37:27;;;;;;;1999.90;999.90;;;15.20;99.90;;;;;;5082767;28;20043;-66
2022/11/02 10:40:07;;;;;;;1999.90;999.90;;;15.40;99.90;;;;;;5064547;28;20050;-66
2022/11/02 10:42:57;;;;;;;1999.90;999.90;;;15.60;99.90;;;;;;5067241;28;20399;-65
2022/11/02 10:45:44;;;;;;;1999.90;999.90;;;15.70;99.90;;;;;;5067660;28;20477;-65
2022/11/02 10:48:27;;;;;;;1999.90;999.90;;;15.70;99.90;;;;;;5071592;28;20122;-65
2022/11/02 10:51:04;;;;;;;1999.90;999.90;;;15.60;99.90;;;;;;5080894;28;20072;-65
2022/11/02 10:53:41;;;;;;;1999.90;999.90;;;15.70;99.90;;;;;;5068215;28;20063;-66
2022/11/02 10:56:20;;;;;;;1999.90;999.90;;;15.60;99.90;;;;;;5068252;28;20048;-66
2022/11/02 10:59:08;;;;;;;1999.90;999.90;;;15.40;99.90;;;;;;5067813;28;20037;-65
2022/11/02 11:01:34;;;;;;;1999.90;999.90;;;15.20;99.90;;;;;;5084700;28;20130;-65
2022/11/02 11:04:19;;;;;;;1999.90;999.90;;;14.90;99.90;;;;;;5104651;28;20135;-65
2022/11/02 11:06:45;;;;;;;1999.90;999.90;;;14.60;99.90;;;;;;5076212;28;20047;-65
2022/11/02 11:09:20;;;;;;;1999.90;999.90;;;14.60;99.90;;;;;;5076621;28;20040;-65
2022/11/02 11:11:55;;;;;;;1999.90;999.90;;;14.70;99.90;;;;;;5080741;28;20503;-65
2022/11/02 11:14:22;;;;;;;1999.90;999.90;;;14.80;99.90;;;;;;5077174;28;20036;-65
2022/11/02 11:16:52;;;;;;;1999.90;999.90;;;14.90;99.90;;;;;;5080527;28;20044;-66
2022/11/02 11:19:26;;;;;;;1999.90;999.90;;;14.90;99.90;;;;;;5070680;28;20047;-66
2022/11/02 11:21:52;;;;;;;1999.90;999.90;;;14.90;99.90;;;;;;5063860;28;20527;-65
2022/11/02 11:24:24;;;;;;;1999.90;999.90;;;14.80;99.90;;;;;;5062364;28;20518;-65
2022/11/02 11:27:14;;;;;;;1999.90;999.90;;;14.70;99.90;;;;;;5073882;28;20036;-65
2022/11/02 11:30:21;;;;;;;1999.90;999.90;;;14.60;99.90;;;;;;5079162;28;20124;-65
2022/11/02 11:32:47;;;;;;;1999.90;999.90;;;14.60;99.90;;;;;;5092210;28;20044;-65
2022/11/02 11:35:17;;;;;;;1999.90;999.90;;;14.60;99.90;;;;;;5079111;28;20055;-65
2022/11/02 11:37:59;;;;;;;1999.90;999.90;;;14.60;99.90;;;;;;5081323;28;20044;-65
2022/11/02 11:40:29;;;;;;;1999.90;999.90;;;14.60;99.90;;;;;;5068615;28;20139;-67
2022/11/02 11:42:56;;;;;;;1999.90;999.90;;;14.80;99.90;;;;;;5081239;28;20062;-65
2022/11/02 11:45:31;;;;;;;1999.90;999.90;;;14.80;99.90;;;;;;5069118;28;20452;-65
2022/11/02 11:48:36;;;;;;;1999.90;999.90;;;14.90;99.90;;;;;;5065043;28;20053;-65
2022/11/02 11:51:03;;;;;;;1999.90;999.90;;;14.90;99.90;;;;;;5077100;28;20081;-65
2022/11/02 11:53:29;;;;;;;1999.90;999.90;;;15.00;99.90;;;;;;5069048;28;20143;-65
2022/11/02 11:55:57;;;;;;;1999.90;999.90;;;15.00;99.90;;;;;;5082898;28;20047;-65
2022/11/02 11:58:30;;;;;;;1999.90;999.90;;;14.90;99.90;;;;;;5069430;28;20045;-65
2022/11/02 12:01:10;;;;;;;1999.90;999.90;;;14.90;99.90;;;;;;5080168;28;20054;-65
2022/11/02 12:03:56;;;;;;;1999.90;999.90;;;14.80;99.90;;;;;;5072258;28;20048;-66
2022/11/02 12:06:36;;;;;;;1999.90;999.90;;;14.90;99.90;;;;;;5076755;28;20507;-65
2022/11/02 12:09:11;;;;;;;1999.90;999.90;;;14.80;99.90;;;;;;5080005;28;20040;-65
2022/11/02 12:11:44;;;;;;;1999.90;999.90;;;14.80;99.90;;;;;;5076523;28;20046;-65
2022/11/02 12:15:03;;;;;;;1999.90;999.90;;;14.90;99.90;;;;;;5075820;28;20051;-66
2022/11/02 12:17:51;;;;;;;1999.90;999.90;;;14.90;99.90;;;;;;5028782;28;20051;-66
2022/11/02 12:20:32;;;;;;;1999.90;999.90;;;14.90;99.90;;;;;;5079149;28;20396;-65
2022/11/02 12:23:25;;;;;;;1999.90;999.90;;;14.90;99.90;;;;;;5079302;28;20050;-65
2022/11/02 12:26:05;;;;;;;1999.90;999.90;;;14.90;99.90;;;;;;5067466;28;20054;-66
2022/11/02 12:28:49;;;;;;;1999.90;999.90;;;14.70;99.90;;;;;;5081265;28;20040;-66
2022/11/02 12:31:37;;;;;;;1999.90;999.90;;;14.80;99.90;;;;;;5056779;28;20052;-66
2022/11/02 12:34:22;;;;;;;1999.90;999.90;;;14.80;99.90;;;;;;5073417;28;20119;-66
2022/11/02 12:37:07;;;;;;;1999.90;999.90;;;14.80;99.90;;;;;;5077526;28;20048;-66